sensor_id;sensor_type;location;lat;lon;timestamp;P1;durP1;ratioP1;P2;durP2;ratioP2
78648;SDS011;67962;47.310;9.642;2023-04-06T00:01:43;6.13;;;3.60;;
78648;SDS011;67962;47.310;9.642;2023-04-06T00:04:09;5.00;;;3.38;;
78648;SDS011;67962;47.310;9.642;2023-04-06T00:06:35;7.00;;;3.85;;
78648;SDS011;67962;47.310;9.642;2023-04-06T00:09:01;6.97;;;3.97;;
78648;SDS011;67962;47.310;9.642;2023-04-06T00:11:27;7.72;;;4.32;;
78648;SDS011;67962;47.310;9.642;2023-04-06T00:13:52;5.57;;;4.10;;
78648;SDS011;67962;47.310;9.642;2023-04-06T00:16:18;7.05;;;3.95;;
78648;SDS011;67962;47.310;9.642;2023-04-06T00:18:44;5.88;;;4.00;;
78648;SDS011;67962;47.310;9.642;2023-04-06T00:21:11;7.03;;;4.32;;
78648;SDS011;67962;47.310;9.642;2023-04-06T00:23:40;5.22;;;3.85;;
78648;SDS011;67962;47.310;9.642;2023-04-06T00:26:07;5.72;;;4.10;;
78648;SDS011;67962;47.310;9.642;2023-04-06T00:28:33;8.38;;;4.13;;
78648;SDS011;67962;47.310;9.642;2023-04-06T00:30:59;6.78;;;3.88;;
78648;SDS011;67962;47.310;9.642;2023-04-06T00:33:25;9.23;;;4.30;;
78648;SDS011;67962;47.310;9.642;2023-04-06T00:35:50;4.47;;;3.45;;
78648;SDS011;67962;47.310;9.642;2023-04-06T00:38:16;6.88;;;4.10;;
78648;SDS011;67962;47.310;9.642;2023-04-06T00:40:43;6.30;;;4.03;;
78648;SDS011;67962;47.310;9.642;2023-04-06T00:43:11;6.28;;;4.00;;
78648;SDS011;67962;47.310;9.642;2023-04-06T00:45:38;6.30;;;4.40;;
78648;SDS011;67962;47.310;9.642;2023-04-06T00:48:04;7.38;;;4.25;;
78648;SDS011;67962;47.310;9.642;2023-04-06T00:50:30;7.43;;;4.28;;
78648;SDS011;67962;47.310;9.642;2023-04-06T00:52:56;8.57;;;4.63;;
78648;SDS011;67962;47.310;9.642;2023-04-06T00:55:22;6.18;;;4.30;;
78648;SDS011;67962;47.310;9.642;2023-04-06T00:57:48;7.95;;;4.70;;
78648;SDS011;67962;47.310;9.642;2023-04-06T01:00:15;6.63;;;4.45;;
78648;SDS011;67962;47.310;9.642;2023-04-06T01:02:41;9.90;;;4.50;;
78648;SDS011;67962;47.310;9.642;2023-04-06T01:05:07;5.88;;;4.22;;
78648;SDS011;67962;47.310;9.642;2023-04-06T01:07:33;5.63;;;3.90;;
78648;SDS011;67962;47.310;9.642;2023-04-06T01:09:59;8.57;;;3.78;;
78648;SDS011;67962;47.310;9.642;2023-04-06T01:12:25;6.45;;;4.10;;
78648;SDS011;67962;47.310;9.642;2023-04-06T01:14:51;5.82;;;3.88;;
78648;SDS011;67962;47.310;9.642;2023-04-06T01:17:17;6.63;;;4.13;;
78648;SDS011;67962;47.310;9.642;2023-04-06T01:19:43;13.02;;;4.25;;
78648;SDS011;67962;47.310;9.642;2023-04-06T01:22:14;6.78;;;3.92;;
78648;SDS011;67962;47.310;9.642;2023-04-06T01:24:41;5.25;;;3.90;;
78648;SDS011;67962;47.310;9.642;2023-04-06T01:27:07;7.00;;;4.50;;
78648;SDS011;67962;47.310;9.642;2023-04-06T01:29:32;5.93;;;4.07;;
78648;SDS011;67962;47.310;9.642;2023-04-06T01:31:58;6.30;;;4.50;;
78648;SDS011;67962;47.310;9.642;2023-04-06T01:34:24;7.78;;;5.18;;
78648;SDS011;67962;47.310;9.642;2023-04-06T01:36:50;10.88;;;6.00;;
78648;SDS011;67962;47.310;9.642;2023-04-06T01:39:15;10.25;;;6.30;;
78648;SDS011;67962;47.310;9.642;2023-04-06T01:41:41;10.27;;;6.32;;
78648;SDS011;67962;47.310;9.642;2023-04-06T01:44:07;10.02;;;5.40;;
78648;SDS011;67962;47.310;9.642;2023-04-06T01:46:33;8.82;;;5.65;;
78648;SDS011;67962;47.310;9.642;2023-04-06T01:48:58;7.53;;;5.20;;
78648;SDS011;67962;47.310;9.642;2023-04-06T01:51:24;8.32;;;5.25;;
78648;SDS011;67962;47.310;9.642;2023-04-06T01:53:50;8.73;;;4.93;;
78648;SDS011;67962;47.310;9.642;2023-04-06T01:56:16;11.73;;;5.57;;
78648;SDS011;67962;47.310;9.642;2023-04-06T01:58:42;8.93;;;5.72;;
78648;SDS011;67962;47.310;9.642;2023-04-06T02:01:08;8.23;;;5.50;;
78648;SDS011;67962;47.310;9.642;2023-04-06T02:03:33;8.02;;;4.90;;
78648;SDS011;67962;47.310;9.642;2023-04-06T02:05:59;7.07;;;4.28;;
78648;SDS011;67962;47.310;9.642;2023-04-06T02:08:25;7.95;;;5.20;;
78648;SDS011;67962;47.310;9.642;2023-04-06T02:10:50;10.68;;;5.70;;
78648;SDS011;67962;47.310;9.642;2023-04-06T02:13:17;7.75;;;4.53;;
78648;SDS011;67962;47.310;9.642;2023-04-06T02:15:42;8.27;;;5.28;;
78648;SDS011;67962;47.310;9.642;2023-04-06T02:18:08;10.20;;;5.75;;
78648;SDS011;67962;47.310;9.642;2023-04-06T02:20:34;11.73;;;5.30;;
78648;SDS011;67962;47.310;9.642;2023-04-06T02:23:00;7.28;;;5.13;;
78648;SDS011;67962;47.310;9.642;2023-04-06T02:25:26;7.18;;;5.07;;
78648;SDS011;67962;47.310;9.642;2023-04-06T02:27:51;8.10;;;5.57;;
78648;SDS011;67962;47.310;9.642;2023-04-06T02:30:17;6.60;;;5.05;;
78648;SDS011;67962;47.310;9.642;2023-04-06T02:32:43;9.57;;;5.70;;
78648;SDS011;67962;47.310;9.642;2023-04-06T02:35:09;8.23;;;5.30;;
78648;SDS011;67962;47.310;9.642;2023-04-06T02:37:34;6.50;;;5.00;;
78648;SDS011;67962;47.310;9.642;2023-04-06T02:40:00;8.30;;;5.70;;
78648;SDS011;67962;47.310;9.642;2023-04-06T02:42:25;7.38;;;5.50;;
78648;SDS011;67962;47.310;9.642;2023-04-06T02:44:51;6.05;;;4.70;;
78648;SDS011;67962;47.310;9.642;2023-04-06T02:47:17;7.35;;;5.20;;
78648;SDS011;67962;47.310;9.642;2023-04-06T02:49:42;7.57;;;5.75;;
78648;SDS011;67962;47.310;9.642;2023-04-06T02:52:08;8.13;;;5.13;;
78648;SDS011;67962;47.310;9.642;2023-04-06T02:54:34;8.57;;;5.25;;
78648;SDS011;67962;47.310;9.642;2023-04-06T02:57:00;6.45;;;4.80;;
78648;SDS011;67962;47.310;9.642;2023-04-06T02:59:25;8.43;;;5.38;;
78648;SDS011;67962;47.310;9.642;2023-04-06T03:01:51;6.70;;;4.95;;
78648;SDS011;67962;47.310;9.642;2023-04-06T03:04:17;8.65;;;5.35;;
78648;SDS011;67962;47.310;9.642;2023-04-06T03:06:42;7.97;;;5.25;;
78648;SDS011;67962;47.310;9.642;2023-04-06T03:09:08;6.65;;;4.97;;
78648;SDS011;67962;47.310;9.642;2023-04-06T03:11:34;8.82;;;5.20;;
78648;SDS011;67962;47.310;9.642;2023-04-06T03:13:59;8.10;;;5.35;;
78648;SDS011;67962;47.310;9.642;2023-04-06T03:16:25;9.40;;;5.47;;
78648;SDS011;67962;47.310;9.642;2023-04-06T03:18:51;7.20;;;5.15;;
78648;SDS011;67962;47.310;9.642;2023-04-06T03:21:16;7.45;;;5.13;;
78648;SDS011;67962;47.310;9.642;2023-04-06T03:23:42;9.20;;;5.40;;
78648;SDS011;67962;47.310;9.642;2023-04-06T03:26:08;8.00;;;4.97;;
78648;SDS011;67962;47.310;9.642;2023-04-06T03:28:34;7.90;;;5.10;;
78648;SDS011;67962;47.310;9.642;2023-04-06T03:31:00;9.13;;;5.85;;
78648;SDS011;67962;47.310;9.642;2023-04-06T03:33:26;8.60;;;4.95;;
78648;SDS011;67962;47.310;9.642;2023-04-06T03:35:52;8.10;;;5.03;;
78648;SDS011;67962;47.310;9.642;2023-04-06T03:38:18;7.25;;;5.40;;
78648;SDS011;67962;47.310;9.642;2023-04-06T03:40:44;8.10;;;5.38;;
78648;SDS011;67962;47.310;9.642;2023-04-06T03:43:10;8.65;;;5.15;;
78648;SDS011;67962;47.310;9.642;2023-04-06T03:45:36;10.50;;;5.40;;
78648;SDS011;67962;47.310;9.642;2023-04-06T03:48:02;7.93;;;5.25;;
78648;SDS011;67962;47.310;9.642;2023-04-06T03:50:28;7.03;;;5.25;;
78648;SDS011;67962;47.310;9.642;2023-04-06T03:52:53;8.90;;;5.13;;
78648;SDS011;67962;47.310;9.642;2023-04-06T03:55:21;9.82;;;5.32;;
78648;SDS011;67962;47.310;9.642;2023-04-06T03:57:47;7.63;;;5.30;;
78648;SDS011;67962;47.310;9.642;2023-04-06T04:00:12;9.40;;;5.75;;
78648;SDS011;67962;47.310;9.642;2023-04-06T04:02:38;11.18;;;6.65;;
78648;SDS011;67962;47.310;9.642;2023-04-06T04:05:04;9.07;;;5.75;;
78648;SDS011;67962;47.310;9.642;2023-04-06T04:07:30;10.02;;;6.10;;
78648;SDS011;67962;47.310;9.642;2023-04-06T04:09:56;10.35;;;5.85;;
78648;SDS011;67962;47.310;9.642;2023-04-06T04:12:22;13.77;;;6.88;;
78648;SDS011;67962;47.310;9.642;2023-04-06T04:14:47;11.80;;;7.10;;
78648;SDS011;67962;47.310;9.642;2023-04-06T04:17:13;11.48;;;6.97;;
78648;SDS011;67962;47.310;9.642;2023-04-06T04:19:39;13.02;;;6.90;;
78648;SDS011;67962;47.310;9.642;2023-04-06T04:22:05;12.70;;;6.05;;
78648;SDS011;67962;47.310;9.642;2023-04-06T04:24:31;7.78;;;5.07;;
78648;SDS011;67962;47.310;9.642;2023-04-06T04:26:57;8.90;;;5.47;;
78648;SDS011;67962;47.310;9.642;2023-04-06T04:29:23;8.32;;;5.55;;
78648;SDS011;67962;47.310;9.642;2023-04-06T04:31:49;8.95;;;5.30;;
78648;SDS011;67962;47.310;9.642;2023-04-06T04:34:15;6.80;;;5.13;;
78648;SDS011;67962;47.310;9.642;2023-04-06T04:36:41;8.90;;;5.85;;
78648;SDS011;67962;47.310;9.642;2023-04-06T04:39:07;12.75;;;6.00;;
78648;SDS011;67962;47.310;9.642;2023-04-06T04:41:33;10.63;;;6.10;;
78648;SDS011;67962;47.310;9.642;2023-04-06T04:43:59;13.20;;;6.95;;
78648;SDS011;67962;47.310;9.642;2023-04-06T04:46:24;9.43;;;5.93;;
78648;SDS011;67962;47.310;9.642;2023-04-06T04:48:50;12.27;;;6.47;;
78648;SDS011;67962;47.310;9.642;2023-04-06T04:51:16;10.85;;;6.43;;
78648;SDS011;67962;47.310;9.642;2023-04-06T04:53:41;14.30;;;7.10;;
78648;SDS011;67962;47.310;9.642;2023-04-06T04:56:07;9.95;;;7.15;;
78648;SDS011;67962;47.310;9.642;2023-04-06T04:58:33;11.65;;;7.22;;
78648;SDS011;67962;47.310;9.642;2023-04-06T05:00:58;10.70;;;7.30;;
78648;SDS011;67962;47.310;9.642;2023-04-06T05:03:24;10.85;;;7.15;;
78648;SDS011;67962;47.310;9.642;2023-04-06T05:05:51;10.15;;;6.70;;
78648;SDS011;67962;47.310;9.642;2023-04-06T05:08:17;14.57;;;7.55;;
78648;SDS011;67962;47.310;9.642;2023-04-06T05:10:43;12.98;;;7.75;;
78648;SDS011;67962;47.310;9.642;2023-04-06T05:13:10;11.60;;;7.60;;
78648;SDS011;67962;47.310;9.642;2023-04-06T05:15:36;13.50;;;7.60;;
78648;SDS011;67962;47.310;9.642;2023-04-06T05:18:05;12.93;;;6.82;;
78648;SDS011;67962;47.310;9.642;2023-04-06T05:20:31;10.82;;;6.38;;
78648;SDS011;67962;47.310;9.642;2023-04-06T05:22:57;9.18;;;5.72;;
78648;SDS011;67962;47.310;9.642;2023-04-06T05:25:23;10.05;;;6.30;;
78648;SDS011;67962;47.310;9.642;2023-04-06T05:27:49;11.18;;;5.60;;
78648;SDS011;67962;47.310;9.642;2023-04-06T05:30:15;9.02;;;5.45;;
78648;SDS011;67962;47.310;9.642;2023-04-06T05:32:41;8.30;;;5.97;;
78648;SDS011;67962;47.310;9.642;2023-04-06T05:35:08;9.98;;;6.35;;
78648;SDS011;67962;47.310;9.642;2023-04-06T05:37:34;8.82;;;5.70;;
78648;SDS011;67962;47.310;9.642;2023-04-06T05:40:00;9.13;;;6.00;;
78648;SDS011;67962;47.310;9.642;2023-04-06T05:42:26;12.38;;;6.15;;
78648;SDS011;67962;47.310;9.642;2023-04-06T05:44:52;11.40;;;6.57;;
78648;SDS011;67962;47.310;9.642;2023-04-06T05:47:18;8.60;;;5.72;;
78648;SDS011;67962;47.310;9.642;2023-04-06T05:49:43;11.52;;;5.90;;
78648;SDS011;67962;47.310;9.642;2023-04-06T05:52:09;8.77;;;5.95;;
78648;SDS011;67962;47.310;9.642;2023-04-06T05:54:36;9.30;;;5.88;;
78648;SDS011;67962;47.310;9.642;2023-04-06T05:57:02;9.02;;;6.07;;
78648;SDS011;67962;47.310;9.642;2023-04-06T05:59:30;10.32;;;6.10;;
78648;SDS011;67962;47.310;9.642;2023-04-06T06:01:56;24.30;;;6.65;;
78648;SDS011;67962;47.310;9.642;2023-04-06T06:04:21;15.32;;;6.07;;
78648;SDS011;67962;47.310;9.642;2023-04-06T06:06:47;8.85;;;6.00;;
78648;SDS011;67962;47.310;9.642;2023-04-06T06:09:13;9.60;;;5.75;;
78648;SDS011;67962;47.310;9.642;2023-04-06T06:11:39;8.82;;;5.85;;
78648;SDS011;67962;47.310;9.642;2023-04-06T06:14:05;10.43;;;6.22;;
78648;SDS011;67962;47.310;9.642;2023-04-06T06:16:31;16.08;;;6.63;;
78648;SDS011;67962;47.310;9.642;2023-04-06T06:18:57;8.88;;;6.15;;
78648;SDS011;67962;47.310;9.642;2023-04-06T06:21:22;10.60;;;6.65;;
78648;SDS011;67962;47.310;9.642;2023-04-06T06:23:48;9.57;;;6.40;;
78648;SDS011;67962;47.310;9.642;2023-04-06T06:26:15;8.70;;;5.72;;
78648;SDS011;67962;47.310;9.642;2023-04-06T06:28:40;9.88;;;5.53;;
78648;SDS011;67962;47.310;9.642;2023-04-06T06:31:06;6.55;;;5.10;;
78648;SDS011;67962;47.310;9.642;2023-04-06T06:33:32;7.90;;;4.70;;
78648;SDS011;67962;47.310;9.642;2023-04-06T06:35:57;7.53;;;5.00;;
78648;SDS011;67962;47.310;9.642;2023-04-06T06:38:23;7.82;;;4.93;;
78648;SDS011;67962;47.310;9.642;2023-04-06T06:40:49;8.32;;;4.80;;
78648;SDS011;67962;47.310;9.642;2023-04-06T06:43:15;8.90;;;5.13;;
78648;SDS011;67962;47.310;9.642;2023-04-06T06:45:41;7.88;;;4.70;;
78648;SDS011;67962;47.310;9.642;2023-04-06T06:48:07;8.38;;;4.40;;
78648;SDS011;67962;47.310;9.642;2023-04-06T06:50:33;8.20;;;5.50;;
78648;SDS011;67962;47.310;9.642;2023-04-06T06:52:58;6.63;;;4.55;;
78648;SDS011;67962;47.310;9.642;2023-04-06T06:55:24;9.40;;;4.80;;
78648;SDS011;67962;47.310;9.642;2023-04-06T06:57:51;14.15;;;4.97;;
78648;SDS011;67962;47.310;9.642;2023-04-06T07:00:18;8.38;;;5.40;;
78648;SDS011;67962;47.310;9.642;2023-04-06T07:02:45;6.68;;;5.22;;
78648;SDS011;67962;47.310;9.642;2023-04-06T07:05:12;11.05;;;5.18;;
78648;SDS011;67962;47.310;9.642;2023-04-06T07:07:38;10.23;;;4.63;;
78648;SDS011;67962;47.310;9.642;2023-04-06T07:10:04;6.30;;;4.25;;
78648;SDS011;67962;47.310;9.642;2023-04-06T07:12:30;8.15;;;4.22;;
78648;SDS011;67962;47.310;9.642;2023-04-06T07:14:56;6.75;;;4.30;;
78648;SDS011;67962;47.310;9.642;2023-04-06T07:17:21;7.82;;;4.72;;
78648;SDS011;67962;47.310;9.642;2023-04-06T07:19:47;7.00;;;4.53;;
78648;SDS011;67962;47.310;9.642;2023-04-06T07:22:13;7.63;;;5.13;;
78648;SDS011;67962;47.310;9.642;2023-04-06T07:24:39;7.75;;;5.07;;
78648;SDS011;67962;47.310;9.642;2023-04-06T07:27:04;5.63;;;4.53;;
78648;SDS011;67962;47.310;9.642;2023-04-06T07:29:30;8.35;;;4.50;;
78648;SDS011;67962;47.310;9.642;2023-04-06T07:31:56;7.07;;;4.38;;
78648;SDS011;67962;47.310;9.642;2023-04-06T07:34:22;9.15;;;4.45;;
78648;SDS011;67962;47.310;9.642;2023-04-06T07:36:48;6.57;;;4.32;;
78648;SDS011;67962;47.310;9.642;2023-04-06T07:39:14;7.82;;;4.88;;
78648;SDS011;67962;47.310;9.642;2023-04-06T07:41:39;6.93;;;4.30;;
78648;SDS011;67962;47.310;9.642;2023-04-06T07:44:05;8.75;;;4.50;;
78648;SDS011;67962;47.310;9.642;2023-04-06T07:46:31;9.50;;;4.82;;
78648;SDS011;67962;47.310;9.642;2023-04-06T07:48:57;9.05;;;5.28;;
78648;SDS011;67962;47.310;9.642;2023-04-06T07:51:24;10.18;;;4.35;;
78648;SDS011;67962;47.310;9.642;2023-04-06T07:53:51;9.15;;;4.88;;
78648;SDS011;67962;47.310;9.642;2023-04-06T07:56:17;7.03;;;5.07;;
78648;SDS011;67962;47.310;9.642;2023-04-06T07:58:43;7.10;;;4.90;;
78648;SDS011;67962;47.310;9.642;2023-04-06T08:01:08;10.38;;;4.95;;
78648;SDS011;67962;47.310;9.642;2023-04-06T08:03:35;8.90;;;5.10;;
78648;SDS011;67962;47.310;9.642;2023-04-06T08:06:01;8.13;;;5.28;;
78648;SDS011;67962;47.310;9.642;2023-04-06T08:08:27;9.27;;;5.10;;
78648;SDS011;67962;47.310;9.642;2023-04-06T08:10:53;8.77;;;5.25;;
78648;SDS011;67962;47.310;9.642;2023-04-06T08:13:19;9.23;;;3.72;;
78648;SDS011;67962;47.310;9.642;2023-04-06T08:15:46;12.00;;;5.28;;
78648;SDS011;67962;47.310;9.642;2023-04-06T08:18:11;10.52;;;5.82;;
78648;SDS011;67962;47.310;9.642;2023-04-06T08:20:37;7.43;;;5.38;;
78648;SDS011;67962;47.310;9.642;2023-04-06T08:23:04;11.35;;;5.40;;
78648;SDS011;67962;47.310;9.642;2023-04-06T08:25:30;10.52;;;5.15;;
78648;SDS011;67962;47.310;9.642;2023-04-06T08:27:55;7.78;;;5.07;;
78648;SDS011;67962;47.310;9.642;2023-04-06T08:30:21;8.23;;;5.38;;
78648;SDS011;67962;47.310;9.642;2023-04-06T08:32:47;8.88;;;5.18;;
78648;SDS011;67962;47.310;9.642;2023-04-06T08:35:12;11.90;;;5.40;;
78648;SDS011;67962;47.310;9.642;2023-04-06T08:37:38;7.90;;;5.22;;
78648;SDS011;67962;47.310;9.642;2023-04-06T08:40:04;7.75;;;5.07;;
78648;SDS011;67962;47.310;9.642;2023-04-06T08:42:33;9.68;;;5.43;;
78648;SDS011;67962;47.310;9.642;2023-04-06T08:45:07;9.88;;;5.65;;
78648;SDS011;67962;47.310;9.642;2023-04-06T08:47:34;10.30;;;5.35;;
78648;SDS011;67962;47.310;9.642;2023-04-06T08:50:03;8.18;;;5.25;;
78648;SDS011;67962;47.310;9.642;2023-04-06T08:52:31;10.38;;;5.30;;
78648;SDS011;67962;47.310;9.642;2023-04-06T08:54:58;14.73;;;5.30;;
78648;SDS011;67962;47.310;9.642;2023-04-06T08:57:24;10.45;;;5.38;;
78648;SDS011;67962;47.310;9.642;2023-04-06T08:59:51;11.52;;;5.22;;
78648;SDS011;67962;47.310;9.642;2023-04-06T09:02:17;11.43;;;5.10;;
78648;SDS011;67962;47.310;9.642;2023-04-06T09:04:53;10.15;;;5.43;;
78648;SDS011;67962;47.310;9.642;2023-04-06T09:07:19;13.25;;;5.45;;
78648;SDS011;67962;47.310;9.642;2023-04-06T09:09:45;11.63;;;5.22;;
78648;SDS011;67962;47.310;9.642;2023-04-06T09:12:26;6.57;;;5.22;;
78648;SDS011;67962;47.310;9.642;2023-04-06T09:14:52;13.88;;;5.32;;
78648;SDS011;67962;47.310;9.642;2023-04-06T09:19:52;7.90;;;5.30;;
78648;SDS011;67962;47.310;9.642;2023-04-06T09:22:18;11.13;;;5.70;;
78648;SDS011;67962;47.310;9.642;2023-04-06T09:27:10;11.60;;;5.35;;
78648;SDS011;67962;47.310;9.642;2023-04-06T09:29:36;11.25;;;5.18;;
78648;SDS011;67962;47.310;9.642;2023-04-06T09:32:05;8.77;;;5.25;;
78648;SDS011;67962;47.310;9.642;2023-04-06T09:34:32;8.82;;;4.60;;
78648;SDS011;67962;47.310;9.642;2023-04-06T09:36:58;7.25;;;4.20;;
78648;SDS011;67962;47.310;9.642;2023-04-06T09:39:24;8.55;;;4.65;;
78648;SDS011;67962;47.310;9.642;2023-04-06T09:41:51;14.45;;;4.50;;
78648;SDS011;67962;47.310;9.642;2023-04-06T09:44:18;7.70;;;3.67;;
78648;SDS011;67962;47.310;9.642;2023-04-06T09:46:45;5.43;;;3.50;;
78648;SDS011;67962;47.310;9.642;2023-04-06T09:49:11;8.05;;;2.85;;
78648;SDS011;67962;47.310;9.642;2023-04-06T09:51:39;5.18;;;3.05;;
78648;SDS011;67962;47.310;9.642;2023-04-06T09:54:06;6.53;;;3.60;;
78648;SDS011;67962;47.310;9.642;2023-04-06T10:01:53;4.88;;;3.17;;
78648;SDS011;67962;47.310;9.642;2023-04-06T10:04:32;4.63;;;3.17;;
78648;SDS011;67962;47.310;9.642;2023-04-06T10:07:05;5.30;;;2.97;;
78648;SDS011;67962;47.310;9.642;2023-04-06T10:09:33;4.22;;;2.90;;
78648;SDS011;67962;47.310;9.642;2023-04-06T10:12:05;4.30;;;3.13;;
78648;SDS011;67962;47.310;9.642;2023-04-06T10:14:33;6.38;;;3.50;;
78648;SDS011;67962;47.310;9.642;2023-04-06T10:17:05;4.75;;;2.95;;
78648;SDS011;67962;47.310;9.642;2023-04-06T10:22:41;7.57;;;2.58;;
78648;SDS011;67962;47.310;9.642;2023-04-06T10:25:28;5.68;;;2.90;;
78648;SDS011;67962;47.310;9.642;2023-04-06T10:28:05;3.72;;;2.83;;
78648;SDS011;67962;47.310;9.642;2023-04-06T10:30:32;4.30;;;3.33;;
78648;SDS011;67962;47.310;9.642;2023-04-06T10:32:59;6.55;;;3.30;;
78648;SDS011;67962;47.310;9.642;2023-04-06T10:35:24;5.07;;;3.55;;
78648;SDS011;67962;47.310;9.642;2023-04-06T10:38:03;4.20;;;3.22;;
78648;SDS011;67962;47.310;9.642;2023-04-06T10:40:30;5.15;;;3.70;;
78648;SDS011;67962;47.310;9.642;2023-04-06T10:43:06;5.35;;;3.58;;
78648;SDS011;67962;47.310;9.642;2023-04-06T10:45:36;4.65;;;3.40;;
78648;SDS011;67962;47.310;9.642;2023-04-06T10:50:43;4.65;;;3.20;;
78648;SDS011;67962;47.310;9.642;2023-04-06T10:53:09;5.55;;;3.22;;
78648;SDS011;67962;47.310;9.642;2023-04-06T10:55:35;5.78;;;3.38;;
78648;SDS011;67962;47.310;9.642;2023-04-06T10:58:08;5.60;;;3.40;;
78648;SDS011;67962;47.310;9.642;2023-04-06T11:00:34;7.65;;;3.40;;
78648;SDS011;67962;47.310;9.642;2023-04-06T11:03:00;4.85;;;3.33;;
78648;SDS011;67962;47.310;9.642;2023-04-06T11:05:27;6.05;;;3.22;;
78648;SDS011;67962;47.310;9.642;2023-04-06T11:07:53;4.78;;;3.13;;
78648;SDS011;67962;47.310;9.642;2023-04-06T11:10:21;6.68;;;3.65;;
78648;SDS011;67962;47.310;9.642;2023-04-06T11:12:57;6.88;;;3.78;;
78648;SDS011;67962;47.310;9.642;2023-04-06T11:15:23;6.80;;;3.90;;
78648;SDS011;67962;47.310;9.642;2023-04-06T11:17:48;6.80;;;4.10;;
78648;SDS011;67962;47.310;9.642;2023-04-06T11:20:14;5.55;;;3.50;;
78648;SDS011;67962;47.310;9.642;2023-04-06T11:22:50;4.65;;;3.63;;
78648;SDS011;67962;47.310;9.642;2023-04-06T11:25:17;5.03;;;3.25;;
78648;SDS011;67962;47.310;9.642;2023-04-06T11:27:43;9.23;;;3.80;;
78648;SDS011;67962;47.310;9.642;2023-04-06T11:30:11;6.43;;;3.75;;
78648;SDS011;67962;47.310;9.642;2023-04-06T11:32:41;7.22;;;3.75;;
78648;SDS011;67962;47.310;9.642;2023-04-06T11:35:26;4.72;;;3.63;;
78648;SDS011;67962;47.310;9.642;2023-04-06T11:37:52;4.40;;;3.40;;
78648;SDS011;67962;47.310;9.642;2023-04-06T11:40:21;6.53;;;3.70;;
78648;SDS011;67962;47.310;9.642;2023-04-06T11:42:54;4.88;;;3.30;;
78648;SDS011;67962;47.310;9.642;2023-04-06T11:45:21;7.57;;;3.97;;
78648;SDS011;67962;47.310;9.642;2023-04-06T11:47:55;5.40;;;3.85;;
78648;SDS011;67962;47.310;9.642;2023-04-06T11:50:23;9.65;;;3.90;;
78648;SDS011;67962;47.310;9.642;2023-04-06T11:52:57;5.05;;;3.67;;
78648;SDS011;67962;47.310;9.642;2023-04-06T11:55:28;6.28;;;3.97;;
78648;SDS011;67962;47.310;9.642;2023-04-06T11:57:53;5.70;;;4.18;;
78648;SDS011;67962;47.310;9.642;2023-04-06T12:00:20;6.00;;;3.88;;
78648;SDS011;67962;47.310;9.642;2023-04-06T12:02:47;8.73;;;3.90;;
78648;SDS011;67962;47.310;9.642;2023-04-06T12:05:13;6.35;;;3.88;;
78648;SDS011;67962;47.310;9.642;2023-04-06T12:07:39;5.65;;;4.20;;
78648;SDS011;67962;47.310;9.642;2023-04-06T12:10:05;5.13;;;3.42;;
78648;SDS011;67962;47.310;9.642;2023-04-06T12:12:31;5.80;;;3.80;;
78648;SDS011;67962;47.310;9.642;2023-04-06T12:14:57;4.63;;;3.55;;
78648;SDS011;67962;47.310;9.642;2023-04-06T12:17:23;5.75;;;4.30;;
78648;SDS011;67962;47.310;9.642;2023-04-06T12:19:49;8.00;;;4.25;;
78648;SDS011;67962;47.310;9.642;2023-04-06T12:22:15;6.00;;;4.07;;
78648;SDS011;67962;47.310;9.642;2023-04-06T12:24:42;6.55;;;4.25;;
78648;SDS011;67962;47.310;9.642;2023-04-06T12:27:08;8.63;;;4.10;;
78648;SDS011;67962;47.310;9.642;2023-04-06T12:29:35;5.10;;;3.85;;
78648;SDS011;67962;47.310;9.642;2023-04-06T12:32:01;5.90;;;4.10;;
78648;SDS011;67962;47.310;9.642;2023-04-06T12:34:27;7.25;;;3.83;;
78648;SDS011;67962;47.310;9.642;2023-04-06T12:36:53;6.22;;;4.28;;
78648;SDS011;67962;47.310;9.642;2023-04-06T12:39:18;5.68;;;3.97;;
78648;SDS011;67962;47.310;9.642;2023-04-06T12:41:45;5.55;;;3.80;;
78648;SDS011;67962;47.310;9.642;2023-04-06T12:44:11;11.75;;;5.68;;
78648;SDS011;67962;47.310;9.642;2023-04-06T12:46:36;8.70;;;4.97;;
78648;SDS011;67962;47.310;9.642;2023-04-06T12:49:02;6.10;;;4.55;;
78648;SDS011;67962;47.310;9.642;2023-04-06T12:51:28;7.18;;;5.05;;
78648;SDS011;67962;47.310;9.642;2023-04-06T12:53:56;6.65;;;4.80;;
78648;SDS011;67962;47.310;9.642;2023-04-06T12:56:21;7.43;;;4.78;;
78648;SDS011;67962;47.310;9.642;2023-04-06T12:58:47;7.63;;;4.68;;
78648;SDS011;67962;47.310;9.642;2023-04-06T13:01:15;7.82;;;4.55;;
78648;SDS011;67962;47.310;9.642;2023-04-06T13:03:41;9.25;;;4.97;;
78648;SDS011;67962;47.310;9.642;2023-04-06T13:06:07;7.47;;;4.78;;
78648;SDS011;67962;47.310;9.642;2023-04-06T13:08:36;7.97;;;5.55;;
78648;SDS011;67962;47.310;9.642;2023-04-06T13:11:03;7.55;;;5.03;;
78648;SDS011;67962;47.310;9.642;2023-04-06T13:13:30;10.02;;;4.38;;
78648;SDS011;67962;47.310;9.642;2023-04-06T13:15:59;9.15;;;3.97;;
78648;SDS011;67962;47.310;9.642;2023-04-06T13:18:29;5.53;;;4.07;;
78648;SDS011;67962;47.310;9.642;2023-04-06T13:20:56;5.07;;;3.80;;
78648;SDS011;67962;47.310;9.642;2023-04-06T13:23:22;5.57;;;4.22;;
78648;SDS011;67962;47.310;9.642;2023-04-06T13:25:56;5.22;;;3.63;;
78648;SDS011;67962;47.310;9.642;2023-04-06T13:28:32;5.82;;;4.28;;
78648;SDS011;67962;47.310;9.642;2023-04-06T13:30:59;8.57;;;4.00;;
78648;SDS011;67962;47.310;9.642;2023-04-06T13:33:28;6.78;;;4.25;;
78648;SDS011;67962;47.310;9.642;2023-04-06T13:35:55;5.88;;;3.70;;
78648;SDS011;67962;47.310;9.642;2023-04-06T13:38:21;6.47;;;4.38;;
78648;SDS011;67962;47.310;9.642;2023-04-06T13:40:49;8.70;;;3.83;;
78648;SDS011;67962;47.310;9.642;2023-04-06T13:43:14;8.30;;;4.10;;
78648;SDS011;67962;47.310;9.642;2023-04-06T13:45:40;6.47;;;4.20;;
78648;SDS011;67962;47.310;9.642;2023-04-06T13:48:06;7.53;;;4.07;;
78648;SDS011;67962;47.310;9.642;2023-04-06T13:50:32;5.13;;;4.00;;
78648;SDS011;67962;47.310;9.642;2023-04-06T13:52:58;5.32;;;4.10;;
78648;SDS011;67962;47.310;9.642;2023-04-06T13:55:24;5.35;;;3.70;;
78648;SDS011;67962;47.310;9.642;2023-04-06T13:57:50;5.60;;;4.10;;
78648;SDS011;67962;47.310;9.642;2023-04-06T14:00:16;6.88;;;4.32;;
78648;SDS011;67962;47.310;9.642;2023-04-06T14:02:42;9.15;;;4.10;;
78648;SDS011;67962;47.310;9.642;2023-04-06T14:05:07;6.30;;;4.03;;
78648;SDS011;67962;47.310;9.642;2023-04-06T14:07:34;5.93;;;4.35;;
78648;SDS011;67962;47.310;9.642;2023-04-06T14:09:59;8.25;;;4.07;;
78648;SDS011;67962;47.310;9.642;2023-04-06T14:12:25;7.43;;;4.40;;
78648;SDS011;67962;47.310;9.642;2023-04-06T14:14:52;7.22;;;4.70;;
78648;SDS011;67962;47.310;9.642;2023-04-06T14:17:17;7.75;;;4.50;;
78648;SDS011;67962;47.310;9.642;2023-04-06T14:19:43;6.72;;;4.68;;
78648;SDS011;67962;47.310;9.642;2023-04-06T14:22:09;7.72;;;4.68;;
78648;SDS011;67962;47.310;9.642;2023-04-06T14:24:35;6.55;;;4.32;;
78648;SDS011;67962;47.310;9.642;2023-04-06T14:27:01;6.95;;;4.50;;
78648;SDS011;67962;47.310;9.642;2023-04-06T14:29:28;7.88;;;4.50;;
78648;SDS011;67962;47.310;9.642;2023-04-06T14:31:53;8.73;;;4.95;;
78648;SDS011;67962;47.310;9.642;2023-04-06T14:34:25;9.27;;;5.22;;
78648;SDS011;67962;47.310;9.642;2023-04-06T14:36:52;10.20;;;6.38;;
78648;SDS011;67962;47.310;9.642;2023-04-06T14:39:17;9.93;;;5.40;;
78648;SDS011;67962;47.310;9.642;2023-04-06T14:41:43;11.73;;;5.95;;
78648;SDS011;67962;47.310;9.642;2023-04-06T14:44:10;8.02;;;5.45;;
78648;SDS011;67962;47.310;9.642;2023-04-06T14:46:37;7.28;;;4.70;;
78648;SDS011;67962;47.310;9.642;2023-04-06T14:49:03;7.57;;;5.15;;
78648;SDS011;67962;47.310;9.642;2023-04-06T14:51:29;9.75;;;5.53;;
78648;SDS011;67962;47.310;9.642;2023-04-06T14:53:55;7.63;;;5.55;;
78648;SDS011;67962;47.310;9.642;2023-04-06T14:56:21;9.70;;;5.95;;
78648;SDS011;67962;47.310;9.642;2023-04-06T14:58:48;11.23;;;5.70;;